CheckWX is a tool to help pilots better visualize weather data.  It is not intended as a substitute for an official pre-flight weather briefing.

18:21:56 UTC

PHOG TAF
Kahului Airport
Kahului, Hawaii, USA
PHOG 251731Z 2518/2618 06012G20KT P6SM FEW030 SCT040 FM252100 05020G32KT P6SM FEW030 SCT045 FM260600 07017G28KT P6SM SCT035 BKN050 FM261200 05011KT P6SM VCSH SCT025 BKN045 AMD LTD TO VIS AND WIND 2609/2616

Aug-25@
18:00 UTC

Aug-25 @ 18:00 UTC

Aug-25@
21:00 UTC

Aug-25 @ 21:00 UTC

PHOG 251731Z 2518/2618 06012G20KT P6SM FEW030 SCT040
Wind
  • 060° at 12 KTS
  • {Gusting to 20 KTS
Cloud Levels
  • Few at 3,000' AGL
  • Scattered at 4,000' AGL

Aug-25@
21:00 UTC

Aug-25 @ 21:00 UTC

Aug-26@
06:00 UTC

Aug-26 @ 06:00 UTC

FM252100 05020G32KT P6SM FEW030 SCT045

From

From Standard forecast or significant change

Wind
  • 050° at 20 KTS
  • {Gusting to 32 KTS
Cloud Levels
  • Few at 3,000' AGL
  • Scattered at 4,500' AGL

Aug-26@
06:00 UTC

Aug-26 @ 06:00 UTC

Aug-26@
12:00 UTC

Aug-26 @ 12:00 UTC

FM260600 07017G28KT P6SM SCT035 BKN050

From

From Standard forecast or significant change

Wind
  • 070° at 17 KTS
  • {Gusting to 28 KTS
Cloud Levels
  • Scattered at 3,500' AGL
  • Broken at 5,000' AGL

Aug-26@
12:00 UTC

Aug-26 @ 12:00 UTC

Aug-26@
18:00 UTC

Aug-26 @ 18:00 UTC

FM261200 05011KT P6SM VCSH SCT025 BKN045 AMD LTD TO VIS AND WIND 2609/2616

From

From Standard forecast or significant change

Wind
  • 050° at 11 KTS
Cloud Levels
  • Scattered at 2,500' AGL
  • Broken at 4,500' AGL